createdAt,value
2022-11-28T00:01:43.956Z,7.50
2022-11-28T00:04:13.403Z,7.37
2022-11-28T00:06:50.191Z,7.25
2022-11-28T00:09:20.725Z,7.16
2022-11-28T00:11:51.281Z,7.10
2022-11-28T00:14:20.593Z,7.04
2022-11-28T00:16:49.578Z,6.98
2022-11-28T00:19:18.518Z,6.94
2022-11-28T00:21:47.348Z,6.91
2022-11-28T00:24:15.935Z,6.89
2022-11-28T00:26:44.639Z,6.90
2022-11-28T00:29:13.285Z,6.88
2022-11-28T00:31:43.692Z,6.88
2022-11-28T00:34:13.967Z,6.87
2022-11-28T00:36:43.588Z,6.84
2022-11-28T00:39:12.034Z,6.83
2022-11-28T00:41:41.212Z,6.85
2022-11-28T00:44:09.710Z,6.87
2022-11-28T00:46:38.343Z,6.88
2022-11-28T00:49:07.129Z,6.90
2022-11-28T00:51:36.388Z,6.92
2022-11-28T00:54:06.650Z,6.91
2022-11-28T00:56:41.050Z,6.93
2022-11-28T00:59:09.902Z,6.94
2022-11-28T01:01:41.544Z,6.97
2022-11-28T01:04:13.898Z,6.99
2022-11-28T01:06:46.434Z,7.00
2022-11-28T01:09:23.206Z,7.01
2022-11-28T01:11:53.662Z,7.02
2022-11-28T01:14:24.310Z,7.03
2022-11-28T01:16:53.106Z,7.00
2022-11-28T01:19:22.333Z,6.97
2022-11-28T01:21:51.346Z,6.95
2022-11-28T01:24:20.156Z,6.92
2022-11-28T01:26:48.795Z,6.88
2022-11-28T01:29:17.662Z,6.84
2022-11-28T01:31:46.430Z,6.78
2022-11-28T01:34:15.163Z,6.73
2022-11-28T01:36:43.898Z,6.68
2022-11-28T01:39:13.166Z,6.65
2022-11-28T01:41:42.877Z,6.62
2022-11-28T01:44:17.606Z,6.59
2022-11-28T01:46:46.053Z,6.58
2022-11-28T01:49:32.975Z,6.57
2022-11-28T01:52:06.190Z,6.58
2022-11-28T01:54:36.539Z,6.58
2022-11-28T01:57:09.362Z,6.58
2022-11-28T01:59:43.235Z,6.59
2022-11-28T02:02:19.632Z,6.58
2022-11-28T02:04:48.926Z,6.60
2022-11-28T02:07:17.931Z,6.61
2022-11-28T02:09:46.734Z,6.59
2022-11-28T02:12:35.178Z,6.59
2022-11-28T02:15:18.956Z,6.59
2022-11-28T02:18:19.552Z,6.60
2022-11-28T02:21:12.419Z,6.61
2022-11-28T02:23:50.631Z,6.59
2022-11-28T02:26:32.001Z,6.59
2022-11-28T02:29:32.968Z,6.58
2022-11-28T02:32:16.670Z,6.57
2022-11-28T02:34:47.052Z,6.58
2022-11-28T02:37:46.209Z,6.57
2022-11-28T02:40:20.441Z,6.53
2022-11-28T02:43:32.701Z,6.53
2022-11-28T02:46:16.552Z,6.53
2022-11-28T02:48:58.825Z,6.54
2022-11-28T02:51:43.778Z,6.53
2022-11-28T02:57:07.291Z,6.54
2022-11-28T02:59:39.221Z,6.55
2022-11-28T03:02:23.821Z,6.57
2022-11-28T03:04:55.332Z,6.60
2022-11-28T03:07:51.674Z,6.63
2022-11-28T03:10:57.641Z,6.65
2022-11-28T03:13:40.968Z,6.66
2022-11-28T03:16:36.953Z,6.70
2022-11-28T03:19:16.718Z,6.74
2022-11-28T03:22:01.334Z,6.76
2022-11-28T03:24:38.691Z,6.78
2022-11-28T03:27:37.180Z,6.79
2022-11-28T03:30:16.362Z,6.79
2022-11-28T03:32:52.114Z,6.78
2022-11-28T03:35:25.366Z,6.77
2022-11-28T03:37:58.717Z,6.77
2022-11-28T03:40:32.337Z,6.79
2022-11-28T03:43:06.899Z,6.79
2022-11-28T03:45:45.354Z,6.79
2022-11-28T03:48:26.425Z,6.79
2022-11-28T03:51:03.491Z,6.79
2022-11-28T03:53:55.104Z,6.77
2022-11-28T03:56:59.099Z,6.76
2022-11-28T03:59:33.025Z,6.73
2022-11-28T04:02:29.210Z,6.73
2022-11-28T04:05:02.347Z,6.73
2022-11-28T04:07:40.298Z,6.74
2022-11-28T04:10:22.985Z,6.70
2022-11-28T04:13:19.718Z,6.70
2022-11-28T04:16:15.460Z,6.72
2022-11-28T04:19:11.093Z,6.75
2022-11-28T04:21:58.123Z,6.76
2022-11-28T04:24:32.598Z,6.77
2022-11-28T04:27:06.549Z,6.78
2022-11-28T04:30:01.491Z,6.79
2022-11-28T04:32:32.924Z,6.79
2022-11-28T04:35:12.686Z,6.81
2022-11-28T04:37:46.206Z,6.82
2022-11-28T04:40:16.319Z,6.84
2022-11-28T04:42:54.245Z,6.85
2022-11-28T04:45:31.322Z,6.86
2022-11-28T04:48:00.349Z,6.83
2022-11-28T04:50:37.181Z,6.78
2022-11-28T04:53:12.949Z,6.68
2022-11-28T04:55:51.386Z,6.52
2022-11-28T04:58:31.214Z,6.33
2022-11-28T05:01:02.011Z,6.11
2022-11-28T05:03:32.118Z,5.95
2022-11-28T05:06:00.779Z,5.78
2022-11-28T05:08:29.564Z,5.63
2022-11-28T05:10:58.270Z,5.52
2022-11-28T05:13:27.131Z,5.45
2022-11-28T05:15:56.036Z,5.39
2022-11-28T05:18:24.934Z,5.33
2022-11-28T05:20:53.657Z,5.25
2022-11-28T05:23:21.923Z,5.21
2022-11-28T05:25:50.250Z,5.18
2022-11-28T05:28:19.072Z,5.16
2022-11-28T05:30:57.661Z,5.14
2022-11-28T05:33:26.573Z,5.13
2022-11-28T05:35:55.106Z,5.12
2022-11-28T05:38:23.977Z,5.11
2022-11-28T05:40:52.646Z,5.10
2022-11-28T05:43:21.362Z,5.09
2022-11-28T05:45:50.180Z,5.10
2022-11-28T05:48:18.994Z,5.10
2022-11-28T05:50:47.536Z,5.09
2022-11-28T05:53:16.396Z,5.09
2022-11-28T05:55:45.564Z,5.08
2022-11-28T05:58:14.262Z,5.06
2022-11-28T06:00:42.962Z,5.01
2022-11-28T06:03:11.550Z,4.99
2022-11-28T06:05:43.561Z,4.99
2022-11-28T06:08:13.929Z,4.99
2022-11-28T06:10:42.872Z,4.99
2022-11-28T06:13:11.800Z,4.98
2022-11-28T06:15:45.988Z,4.98
2022-11-28T06:18:14.672Z,4.97
2022-11-28T06:20:43.324Z,4.95
2022-11-28T06:23:11.874Z,4.94
2022-11-28T06:25:40.395Z,4.91
2022-11-28T06:28:09.179Z,4.88
2022-11-28T06:30:38.074Z,4.86
2022-11-28T06:33:06.637Z,4.86
2022-11-28T06:35:35.190Z,4.86
2022-11-28T06:38:03.914Z,4.87
2022-11-28T06:40:33.237Z,4.86
2022-11-28T06:43:02.156Z,4.86
2022-11-28T06:45:30.629Z,4.83
2022-11-28T06:47:59.588Z,4.77
2022-11-28T06:50:28.281Z,4.69
2022-11-28T06:52:57.337Z,4.60
2022-11-28T06:55:25.980Z,4.52
2022-11-28T06:57:54.577Z,4.49
2022-11-28T07:00:23.121Z,4.50
2022-11-28T07:02:51.858Z,4.53
2022-11-28T07:05:22.377Z,4.55
2022-11-28T07:07:54.525Z,4.57
2022-11-28T07:10:24.951Z,4.59
2022-11-28T07:13:19.291Z,4.59
2022-11-28T07:15:54.064Z,4.61
2022-11-28T07:18:22.843Z,4.66
2022-11-28T07:20:51.657Z,4.69
2022-11-28T07:23:20.178Z,4.72
2022-11-28T07:25:48.876Z,4.74
2022-11-28T07:28:21.926Z,4.76
2022-11-28T07:30:58.948Z,4.78
2022-11-28T07:33:28.151Z,4.81
2022-11-28T07:35:56.869Z,4.80
2022-11-28T07:38:25.609Z,4.78
2022-11-28T07:40:54.267Z,4.76
2022-11-28T07:43:22.935Z,4.73
2022-11-28T07:46:01.151Z,4.71
2022-11-28T07:48:30.220Z,4.71
2022-11-28T07:50:58.914Z,4.75
2022-11-28T07:53:27.466Z,4.78
2022-11-28T07:55:55.847Z,4.82
2022-11-28T07:58:24.391Z,4.82
2022-11-28T08:00:53.189Z,4.80
2022-11-28T08:03:21.589Z,4.79
2022-11-28T08:05:51.047Z,4.77
2022-11-28T08:08:20.766Z,4.77
2022-11-28T08:10:49.259Z,4.73
2022-11-28T08:13:17.941Z,4.66
2022-11-28T08:15:47.355Z,4.60
2022-11-28T08:18:15.965Z,4.60
2022-11-28T08:20:44.845Z,4.61
2022-11-28T08:23:13.521Z,4.63
2022-11-28T08:25:42.295Z,4.64
2022-11-28T08:28:10.942Z,4.60
2022-11-28T08:30:39.951Z,4.55
2022-11-28T08:33:08.802Z,4.51
2022-11-28T08:35:40.491Z,4.47
2022-11-28T08:38:09.152Z,4.47
2022-11-28T08:40:38.050Z,4.47
2022-11-28T08:43:08.445Z,4.49
2022-11-28T08:45:40.481Z,4.51
2022-11-28T08:48:09.120Z,4.53
2022-11-28T08:50:37.793Z,4.56
2022-11-28T08:53:07.944Z,4.60
2022-11-28T08:55:41.624Z,4.64
2022-11-28T08:58:10.608Z,4.68
2022-11-28T09:00:39.759Z,4.71
2022-11-28T09:03:08.254Z,4.75
2022-11-28T09:05:36.908Z,4.79
2022-11-28T09:08:10.153Z,4.84
2022-11-28T09:10:41.424Z,4.83
2022-11-28T09:13:10.726Z,4.80
2022-11-28T09:15:51.282Z,4.79
2022-11-28T09:18:21.670Z,4.80
2022-11-28T09:20:50.363Z,4.81
2022-11-28T09:23:18.909Z,4.81
2022-11-28T09:25:47.897Z,4.79
2022-11-28T09:28:16.492Z,4.78
2022-11-28T09:30:45.023Z,4.78
2022-11-28T09:33:14.398Z,4.75
2022-11-28T09:35:42.999Z,4.71
2022-11-28T09:38:11.440Z,4.68
2022-11-28T09:40:43.540Z,4.68
2022-11-28T09:43:30.721Z,4.69
2022-11-28T09:46:02.635Z,4.70
2022-11-28T09:48:41.285Z,4.70
2022-11-28T09:51:44.614Z,4.70
2022-11-28T09:54:24.835Z,4.71
2022-11-28T09:56:53.577Z,4.72
2022-11-28T09:59:28.595Z,4.72
2022-11-28T10:02:15.409Z,4.74
2022-11-28T10:05:12.354Z,4.74
2022-11-28T10:07:55.299Z,4.74
2022-11-28T10:11:02.189Z,4.73
2022-11-28T10:14:07.772Z,4.72
2022-11-28T10:16:47.142Z,4.73
2022-11-28T10:19:52.386Z,4.75
2022-11-28T10:22:17.605Z,4.76
2022-11-28T10:27:50.741Z,4.80
2022-11-28T10:30:27.703Z,4.80
2022-11-28T10:33:09.254Z,4.80
2022-11-28T10:35:57.688Z,4.81
2022-11-28T10:38:28.756Z,4.83
2022-11-28T10:41:18.609Z,4.86
2022-11-28T10:44:00.310Z,4.88
2022-11-28T10:46:44.878Z,4.92
2022-11-28T10:49:35.008Z,4.95
2022-11-28T10:52:31.178Z,4.98
2022-11-28T10:55:21.308Z,5.01
2022-11-28T10:58:05.021Z,5.06
2022-11-28T11:00:35.255Z,5.10
2022-11-28T11:03:05.362Z,5.12
2022-11-28T11:05:36.502Z,5.16
2022-11-28T11:08:25.008Z,5.19
2022-11-28T11:11:01.294Z,5.24
2022-11-28T11:13:33.423Z,5.28
2022-11-28T11:16:07.269Z,5.31
2022-11-28T11:18:51.439Z,5.36
2022-11-28T11:21:28.418Z,5.41
2022-11-28T11:24:17.092Z,5.44
2022-11-28T11:26:50.297Z,5.48
2022-11-28T11:29:31.363Z,5.51
2022-11-28T11:32:04.590Z,5.53
2022-11-28T11:34:39.379Z,5.53
2022-11-28T11:37:30.088Z,5.52
2022-11-28T11:39:59.108Z,5.53
2022-11-28T11:42:33.771Z,5.51
2022-11-28T11:45:27.549Z,5.51
2022-11-28T11:47:56.460Z,5.50
2022-11-28T11:50:28.522Z,5.50
2022-11-28T11:53:04.501Z,5.50
2022-11-28T11:55:39.172Z,5.49
2022-11-28T11:58:13.697Z,5.48
2022-11-28T12:00:42.596Z,5.48
2022-11-28T12:03:38.093Z,5.47
2022-11-28T12:06:15.713Z,5.45
2022-11-28T12:08:54.086Z,5.44
2022-11-28T12:11:33.323Z,5.44
2022-11-28T12:14:22.783Z,5.43
2022-11-28T12:17:46.858Z,5.41
2022-11-28T12:20:10.635Z,5.36
2022-11-28T12:22:42.368Z,5.32
2022-11-28T12:25:28.895Z,5.28
2022-11-28T12:28:06.595Z,5.21
2022-11-28T12:31:11.726Z,5.16
2022-11-28T12:34:04.786Z,5.12
2022-11-28T12:37:14.350Z,5.09
2022-11-28T12:39:58.197Z,5.02
2022-11-28T12:42:46.035Z,4.97
2022-11-28T12:45:31.624Z,4.93
2022-11-28T12:48:07.188Z,4.92
2022-11-28T12:50:43.574Z,4.92
2022-11-28T12:53:12.005Z,4.92
2022-11-28T12:56:07.327Z,4.91
2022-11-28T12:58:43.702Z,4.92
2022-11-28T13:01:30.539Z,4.93
2022-11-28T13:04:14.036Z,4.94
2022-11-28T13:07:08.237Z,4.93
2022-11-28T13:09:44.988Z,4.95
2022-11-28T13:12:47.859Z,4.98
2022-11-28T13:15:45.749Z,4.98
2022-11-28T13:18:29.969Z,4.97
2022-11-28T13:21:29.475Z,4.98
2022-11-28T13:24:18.231Z,4.99
2022-11-28T13:27:12.177Z,4.98
2022-11-28T13:30:08.017Z,4.98
2022-11-28T13:32:46.618Z,4.97
2022-11-28T13:35:20.616Z,4.96
2022-11-28T13:38:42.522Z,4.96
2022-11-28T13:42:05.914Z,4.99
2022-11-28T13:44:22.003Z,4.99
2022-11-28T13:46:51.602Z,4.98
2022-11-28T13:49:31.277Z,4.97
2022-11-28T13:52:30.319Z,4.97
2022-11-28T13:54:59.053Z,4.98
2022-11-28T13:57:38.720Z,4.97
2022-11-28T14:00:23.602Z,4.97
2022-11-28T14:02:57.010Z,4.96
2022-11-28T14:05:30.401Z,4.95
2022-11-28T14:07:59.990Z,4.93
2022-11-28T14:10:53.590Z,4.92
2022-11-28T14:13:24.080Z,4.91
2022-11-28T14:16:07.743Z,4.92
2022-11-28T14:21:42.381Z,4.89
2022-11-28T14:24:37.574Z,4.88
2022-11-28T14:27:08.569Z,4.86
2022-11-28T14:29:42.521Z,4.83
2022-11-28T14:32:31.824Z,4.81
2022-11-28T14:35:01.169Z,4.77
2022-11-28T14:37:36.809Z,4.76
2022-11-28T14:40:25.205Z,4.75
2022-11-28T14:43:26.644Z,4.75
2022-11-28T14:46:20.277Z,4.75
2022-11-28T14:49:01.069Z,4.75
2022-11-28T14:52:16.012Z,4.74
2022-11-28T14:54:45.143Z,4.74
2022-11-28T14:57:24.621Z,4.73
2022-11-28T14:59:54.544Z,4.72
2022-11-28T15:02:57.493Z,4.69
2022-11-28T15:05:44.202Z,4.68
2022-11-28T15:08:34.732Z,4.66
2022-11-28T15:11:21.657Z,4.64
2022-11-28T15:13:56.493Z,4.61
2022-11-28T15:16:25.998Z,4.58
2022-11-28T15:18:59.483Z,4.55
2022-11-28T15:21:28.007Z,4.54
2022-11-28T15:23:56.895Z,4.54
2022-11-28T15:26:34.627Z,4.53
2022-11-28T15:29:18.947Z,4.54
2022-11-28T15:31:49.422Z,4.56
2022-11-28T15:34:27.964Z,4.57
2022-11-28T15:37:02.510Z,4.58
2022-11-28T15:39:40.776Z,4.61
2022-11-28T15:42:20.366Z,4.62
2022-11-28T15:44:50.789Z,4.64
2022-11-28T15:47:21.717Z,4.65
2022-11-28T15:50:18.008Z,4.67
2022-11-28T15:53:06.031Z,4.68
2022-11-28T15:55:35.614Z,4.70
2022-11-28T15:58:24.596Z,4.71
2022-11-28T16:00:59.207Z,4.73
2022-11-28T16:03:32.732Z,4.74
2022-11-28T16:06:01.977Z,4.73
2022-11-28T16:08:35.058Z,4.73
2022-11-28T16:11:07.186Z,4.74
2022-11-28T16:13:38.530Z,4.74
2022-11-28T16:16:17.537Z,4.74
2022-11-28T16:18:57.966Z,4.75
2022-11-28T16:21:52.468Z,4.77
2022-11-28T16:24:39.004Z,4.77
2022-11-28T16:27:07.829Z,4.76
2022-11-28T16:29:38.111Z,4.75
2022-11-28T16:32:29.744Z,4.75
2022-11-28T16:35:01.994Z,4.72
2022-11-28T16:37:32.979Z,4.73
2022-11-28T16:40:15.923Z,4.74
2022-11-28T16:42:52.885Z,4.74
2022-11-28T16:45:34.022Z,4.74
2022-11-28T16:48:09.722Z,4.76
2022-11-28T16:50:38.821Z,4.80
2022-11-28T16:53:07.264Z,4.84
2022-11-28T16:55:35.724Z,4.87
2022-11-28T16:58:15.522Z,4.91
2022-11-28T17:00:48.886Z,4.95
2022-11-28T17:03:45.141Z,4.99
2022-11-28T17:06:18.591Z,5.05
2022-11-28T17:08:47.293Z,5.09
2022-11-28T17:11:20.099Z,5.12
2022-11-28T17:13:48.857Z,5.14
2022-11-28T17:16:20.021Z,5.19
2022-11-28T17:18:49.030Z,5.23
2022-11-28T17:21:24.140Z,5.27
2022-11-28T17:23:52.495Z,5.29
2022-11-28T17:26:21.202Z,5.33
2022-11-28T17:28:49.391Z,5.37
2022-11-28T17:31:19.147Z,5.44
2022-11-28T17:33:47.897Z,5.49
2022-11-28T17:36:16.562Z,5.55
2022-11-28T17:38:45.974Z,5.61
2022-11-28T17:41:15.498Z,5.65
2022-11-28T17:43:44.324Z,5.67
2022-11-28T17:46:13.095Z,5.70
2022-11-28T17:48:41.892Z,5.72
2022-11-28T17:51:11.843Z,5.72
2022-11-28T17:53:40.540Z,5.72
2022-11-28T17:56:14.415Z,5.71
2022-11-28T17:58:43.149Z,5.70
2022-11-28T18:01:18.840Z,5.69
2022-11-28T18:03:47.533Z,5.69
2022-11-28T18:06:20.602Z,5.70
2022-11-28T18:08:50.713Z,5.70
2022-11-28T18:11:22.322Z,5.72
2022-11-28T18:13:50.992Z,5.74
2022-11-28T18:16:22.852Z,5.76
2022-11-28T18:18:51.343Z,5.79
2022-11-28T18:21:19.978Z,5.80
2022-11-28T18:23:53.232Z,5.81
2022-11-28T18:26:25.122Z,5.82
2022-11-28T18:28:54.483Z,5.84
2022-11-28T18:31:25.993Z,5.84
2022-11-28T18:34:01.520Z,5.84
2022-11-28T18:36:31.708Z,5.82
2022-11-28T18:39:05.121Z,5.79
2022-11-28T18:41:33.909Z,5.76
2022-11-28T18:44:05.507Z,5.75
2022-11-28T18:46:35.113Z,5.74
2022-11-28T18:49:04.379Z,5.72
2022-11-28T18:51:36.556Z,5.69
2022-11-28T18:54:06.924Z,5.66
2022-11-28T18:56:35.962Z,5.65
2022-11-28T18:59:05.322Z,5.64
2022-11-28T19:01:36.491Z,5.65
2022-11-28T19:04:08.742Z,5.65
2022-11-28T19:06:39.516Z,5.63
2022-11-28T19:09:10.963Z,5.62
2022-11-28T19:11:40.377Z,5.60
2022-11-28T19:14:09.279Z,5.59
2022-11-28T19:16:39.140Z,5.59
2022-11-28T19:19:07.897Z,5.60
2022-11-28T19:21:38.048Z,5.60
2022-11-28T19:24:09.074Z,5.62
2022-11-28T19:26:38.977Z,5.63
2022-11-28T19:29:08.223Z,5.64
2022-11-28T19:31:38.404Z,5.64
2022-11-28T19:34:15.773Z,5.64
2022-11-28T19:36:46.970Z,5.63
2022-11-28T19:39:26.169Z,5.63
2022-11-28T19:41:55.568Z,5.61
2022-11-28T19:44:25.630Z,5.61
2022-11-28T19:46:54.769Z,5.59
2022-11-28T19:49:25.063Z,5.57
2022-11-28T19:51:55.354Z,5.56
2022-11-28T19:54:24.026Z,5.56
2022-11-28T19:56:52.974Z,5.57
2022-11-28T19:59:21.903Z,5.56
2022-11-28T20:01:50.973Z,5.57
2022-11-28T20:04:21.249Z,5.57
2022-11-28T20:06:49.827Z,5.58
2022-11-28T20:09:18.524Z,5.60
2022-11-28T20:11:47.363Z,5.61
2022-11-28T20:14:19.279Z,5.62
2022-11-28T20:16:48.290Z,5.61
2022-11-28T20:19:17.042Z,5.60
2022-11-28T20:21:45.695Z,5.57
2022-11-28T20:24:14.456Z,5.56
2022-11-28T20:26:44.676Z,5.55
2022-11-28T20:29:18.864Z,5.54
2022-11-28T20:31:48.981Z,5.55
2022-11-28T20:34:19.205Z,5.59
2022-11-28T20:36:52.518Z,5.63
2022-11-28T20:39:21.834Z,5.65
2022-11-28T20:41:50.426Z,5.66
2022-11-28T20:44:19.915Z,5.70
2022-11-28T20:46:50.751Z,5.73
2022-11-28T20:49:19.847Z,5.74
2022-11-28T20:51:49.196Z,5.74
2022-11-28T20:54:18.220Z,5.73
2022-11-28T20:59:37.055Z,5.69
2022-11-28T21:02:05.788Z,5.65
2022-11-28T21:04:34.573Z,5.63
2022-11-28T21:07:03.060Z,5.61
2022-11-28T21:09:31.829Z,5.60
2022-11-28T21:12:00.397Z,5.57
2022-11-28T21:14:32.567Z,5.58
2022-11-28T21:17:02.364Z,5.59
2022-11-28T21:19:31.308Z,5.60
2022-11-28T21:22:03.348Z,5.60
2022-11-28T21:24:31.872Z,5.61
2022-11-28T21:27:00.473Z,5.61
2022-11-28T21:29:29.475Z,5.61
2022-11-28T21:31:58.009Z,5.61
2022-11-28T21:34:26.925Z,5.59
2022-11-28T21:36:55.911Z,5.57
2022-11-28T21:39:24.648Z,5.56
2022-11-28T21:41:53.352Z,5.55
2022-11-28T21:44:22.087Z,5.54
2022-11-28T21:46:50.732Z,5.54
2022-11-28T21:49:19.399Z,5.55
2022-11-28T21:51:48.001Z,5.56
2022-11-28T21:54:16.743Z,5.57
2022-11-28T21:56:45.425Z,5.57
2022-11-28T21:59:14.078Z,5.57
2022-11-28T22:01:42.917Z,5.57
2022-11-28T22:04:12.664Z,5.55
2022-11-28T22:06:41.733Z,5.53
2022-11-28T22:09:12.750Z,5.51
2022-11-28T22:11:41.885Z,5.48
2022-11-28T22:14:10.594Z,5.47
2022-11-28T22:16:41.247Z,5.45
2022-11-28T22:19:10.713Z,5.43
2022-11-28T22:21:55.524Z,5.40
2022-11-28T22:24:24.979Z,5.38
2022-11-28T22:26:54.356Z,5.37
2022-11-28T22:29:23.207Z,5.33
2022-11-28T22:31:52.049Z,5.32
2022-11-28T22:34:20.724Z,5.32
2022-11-28T22:36:49.355Z,5.30
2022-11-28T22:39:18.239Z,5.28
2022-11-28T22:41:47.062Z,5.28
2022-11-28T22:44:15.742Z,5.30
2022-11-28T22:46:48.602Z,5.28
2022-11-28T22:49:17.367Z,5.27
2022-11-28T22:51:46.175Z,5.23
2022-11-28T22:54:19.039Z,5.17
2022-11-28T22:56:47.823Z,5.12
2022-11-28T22:59:18.135Z,5.05
2022-11-28T23:01:46.819Z,4.99
2022-11-28T23:04:15.730Z,4.92
2022-11-28T23:06:44.344Z,4.87
2022-11-28T23:09:15.847Z,4.82
2022-11-28T23:11:44.335Z,4.78
2022-11-28T23:14:15.983Z,4.73
2022-11-28T23:16:46.067Z,4.71
2022-11-28T23:19:19.148Z,4.69
2022-11-28T23:21:51.093Z,4.64
2022-11-28T23:24:22.604Z,4.57
2022-11-28T23:26:52.176Z,4.53
2022-11-28T23:29:21.211Z,4.47
2022-11-28T23:31:49.928Z,4.40
2022-11-28T23:34:18.724Z,4.36
2022-11-28T23:36:48.470Z,4.34
2022-11-28T23:39:20.683Z,4.31
2022-11-28T23:41:50.500Z,4.25
2022-11-28T23:44:21.096Z,4.22
2022-11-28T23:46:50.056Z,4.19
2022-11-28T23:49:19.052Z,4.13
2022-11-28T23:51:47.883Z,4.08
2022-11-28T23:54:16.576Z,4.03
2022-11-28T23:56:45.543Z,3.97
2022-11-28T23:59:14.834Z,3.92
